Terminal Aerodrome Forecast
Issued by NWS

Home | Current Version | Previous Version | Text Only | Print | Product List | Glossary On
Versions: 1 2 3 4 5 6 7 8 9 10 11 12 13 14 15 16 17 18 19 20 21 22 23
000
FTUS46 KLOX 191100
TAFSBP
TAF
KSBP 191135Z 1912/2012 31006KT P6SM OVC018
     FM191700 29006KT P6SM OVC022
     FM192000 30012KT P6SM SKC
     FM200300 VRB03KT P6SM BKN025
     FM200900 VRB03KT P6SM OVC015=

USA.gov is the U.S. government's official web portal to all federal, state and local government web resources and services.